sensor_id;sensor_type;location;lat;lon;timestamp;pressure;altitude;pressure_sealevel;temperature;humidity
39083;BME280;24834;44.444;26.098;2023-04-27T00:01:52;100248.66;;;12.67;
39083;BME280;24834;44.444;26.098;2023-04-27T00:07:54;100245.06;;;12.63;
39083;BME280;24834;44.444;26.098;2023-04-27T00:13:57;100249.75;;;12.66;
39083;BME280;24834;44.444;26.098;2023-04-27T00:19:59;100245.94;;;12.58;
39083;BME280;24834;44.444;26.098;2023-04-27T00:26:02;100250.81;;;12.51;
39083;BME280;24834;44.444;26.098;2023-04-27T00:32:05;100256.38;;;12.63;
39083;BME280;24834;44.444;26.098;2023-04-27T00:38:10;100254.84;;;12.62;
39083;BME280;24834;44.444;26.098;2023-04-27T00:44:24;100256.31;;;12.55;
39083;BME280;24834;44.444;26.098;2023-04-27T00:50:28;100271.25;;;12.59;
39083;BME280;24834;44.444;26.098;2023-04-27T00:56:30;100270.84;;;12.52;
39083;BME280;24834;44.444;26.098;2023-04-27T01:02:35;100271.13;;;12.64;
39083;BME280;24834;44.444;26.098;2023-04-27T01:08:38;100277.59;;;12.58;
39083;BME280;24834;44.444;26.098;2023-04-27T01:14:42;100277.78;;;12.62;
39083;BME280;24834;44.444;26.098;2023-04-27T01:20:44;100291.38;;;12.55;
39083;BME280;24834;44.444;26.098;2023-04-27T01:26:46;100289.72;;;12.59;
39083;BME280;24834;44.444;26.098;2023-04-27T01:32:52;100301.59;;;12.43;
39083;BME280;24834;44.444;26.098;2023-04-27T01:38:56;100301.31;;;12.58;
39083;BME280;24834;44.444;26.098;2023-04-27T01:44:59;100305.41;;;12.51;
39083;BME280;24834;44.444;26.098;2023-04-27T01:51:02;100310.63;;;12.69;
39083;BME280;24834;44.444;26.098;2023-04-27T01:57:05;100310.22;;;12.62;
39083;BME280;24834;44.444;26.098;2023-04-27T02:03:07;100303.38;;;12.61;
39083;BME280;24834;44.444;26.098;2023-04-27T02:09:10;100307.28;;;12.50;
39083;BME280;24834;44.444;26.098;2023-04-27T02:15:14;100311.69;;;12.68;
39083;BME280;24834;44.444;26.098;2023-04-27T02:21:18;100319.50;;;12.60;
39083;BME280;24834;44.444;26.098;2023-04-27T02:27:21;100330.34;;;12.58;
39083;BME280;24834;44.444;26.098;2023-04-27T02:33:24;100329.94;;;12.65;
39083;BME280;24834;44.444;26.098;2023-04-27T02:39:27;100334.25;;;12.61;
39083;BME280;24834;44.444;26.098;2023-04-27T02:45:29;100339.72;;;12.64;
39083;BME280;24834;44.444;26.098;2023-04-27T02:51:32;100347.34;;;12.66;
39083;BME280;24834;44.444;26.098;2023-04-27T02:57:35;100360.03;;;12.77;
39083;BME280;24834;44.444;26.098;2023-04-27T03:03:37;100364.63;;;12.85;
39083;BME280;24834;44.444;26.098;2023-04-27T03:09:40;100370.00;;;12.80;
39083;BME280;24834;44.444;26.098;2023-04-27T03:15:42;100390.31;;;12.80;
39083;BME280;24834;44.444;26.098;2023-04-27T03:21:44;100402.56;;;12.43;
39083;BME280;24834;44.444;26.098;2023-04-27T03:27:47;100401.06;;;12.56;
39083;BME280;24834;44.444;26.098;2023-04-27T03:33:49;100393.47;;;12.82;
39083;BME280;24834;44.444;26.098;2023-04-27T03:39:51;100413.56;;;12.91;
39083;BME280;24834;44.444;26.098;2023-04-27T03:45:53;100419.88;;;12.95;
39083;BME280;24834;44.444;26.098;2023-04-27T03:51:56;100424.41;;;13.03;
39083;BME280;24834;44.444;26.098;2023-04-27T03:57:58;100437.06;;;13.07;
39083;BME280;24834;44.444;26.098;2023-04-27T04:04:01;100422.13;;;13.02;
